Time;durP1;ratioP1;P1;durP2;ratioP2;P2;SDS_P1;SDS_P2;PMS_P1;PMS_P2;Temp;Humidity;BMP_temperature;BMP_pressure;BME280_temperature;BME280_humidity;BME280_pressure;Samples;Min_cycle;Max_cycle;Signal;HPM_P1;HPM_P2
2023/12/05 00:00:05;;;;;;;54.40;48.58;;;10.80;1.00;;;;;;5006010;28;20042;-69
2023/12/05 00:02:31;;;;;;;52.70;47.30;;;10.40;5.40;;;;;;5006024;28;20106;-69
2023/12/05 00:04:57;;;;;;;51.97;46.38;;;10.60;44.70;;;;;;5004340;28;20088;-70
2023/12/05 00:07:23;;;;;;;54.25;48.63;;;10.70;82.30;;;;;;4998721;28;20042;-68
2023/12/05 00:09:49;;;;;;;57.45;51.45;;;10.60;99.90;;;;;;5005954;28;20083;-68
2023/12/05 00:12:15;;;;;;;55.33;49.38;;;10.30;99.90;;;;;;5002882;28;20046;-69
2023/12/05 00:14:41;;;;;;;53.00;47.17;;;10.70;99.90;;;;;;4984898;28;20540;-70
2023/12/05 00:17:06;;;;;;;55.40;49.72;;;10.40;99.90;;;;;;4986447;28;20042;-68
2023/12/05 00:19:32;;;;;;;54.90;49.25;;;10.60;99.90;;;;;;4986722;28;20042;-70
2023/12/05 00:21:58;;;;;;;54.88;48.90;;;10.70;99.90;;;;;;4988033;28;20101;-70
2023/12/05 00:24:23;;;;;;;53.30;48.03;;;10.70;99.90;;;;;;4990007;28;20042;-69
2023/12/05 00:26:49;;;;;;;52.05;46.80;;;10.30;99.90;;;;;;4989186;28;20097;-70
2023/12/05 00:29:15;;;;;;;53.28;47.85;;;10.70;1.00;;;;;;5009522;28;20457;-68
2023/12/05 00:31:40;;;;;;;57.75;52.15;;;10.60;1.00;;;;;;5006024;28;20034;-69
2023/12/05 00:34:06;;;;;;;54.80;49.17;;;10.50;1.00;;;;;;4989724;28;20046;-70
2023/12/05 00:36:32;;;;;;;54.58;48.95;;;10.30;1.00;;;;;;4991229;28;20204;-70
2023/12/05 00:38:57;;;;;;;57.63;51.55;;;10.70;7.70;;;;;;5009255;28;20041;-69
2023/12/05 00:41:25;;;;;;;58.35;52.40;;;10.40;99.90;;;;;;5005516;28;20042;-68
2023/12/05 00:43:51;;;;;;;52.58;46.97;;;10.20;99.90;;;;;;4970066;28;20047;-69
2023/12/05 00:46:17;;;;;;;54.05;48.05;;;10.10;99.90;;;;;;4970403;28;20051;-70
2023/12/05 00:48:43;;;;;;;52.95;47.08;;;10.50;99.90;;;;;;4990333;28;20093;-68
2023/12/05 00:51:08;;;;;;;57.80;51.83;;;10.70;99.90;;;;;;4988208;28;20049;-68
2023/12/05 00:53:34;;;;;;;57.47;51.42;;;10.20;1.00;;;;;;4988438;28;20046;-66
2023/12/05 00:56:00;;;;;;;57.53;51.28;;;10.90;1.00;;;;;;4988987;28;20042;-67
2023/12/05 00:58:25;;;;;;;59.17;52.83;;;10.40;19.40;;;;;;4989807;28;20563;-67
2023/12/05 01:00:51;;;;;;;56.35;50.65;;;10.10;99.90;;;;;;4989182;28;20085;-67
2023/12/05 01:03:17;;;;;;;57.33;51.25;;;10.90;99.90;;;;;;4990080;28;20068;-67
2023/12/05 01:05:42;;;;;;;60.25;53.72;;;10.60;99.90;;;;;;4988975;28;20085;-67
2023/12/05 01:08:08;;;;;;;58.45;52.55;;;10.60;1.00;;;;;;4989668;28;20038;-67
2023/12/05 01:10:34;;;;;;;57.58;51.55;;;10.60;1.00;;;;;;4989418;28;20412;-67
2023/12/05 01:13:02;;;;;;;54.75;48.95;;;10.40;1.00;;;;;;4989677;28;20547;-68
2023/12/05 01:15:27;;;;;;;57.15;51.15;;;10.60;85.90;;;;;;4989600;28;20408;-66
2023/12/05 01:17:53;;;;;;;60.80;54.47;;;10.60;99.90;;;;;;4989558;28;20042;-68
2023/12/05 01:20:19;;;;;;;59.38;53.15;;;10.50;99.90;;;;;;4990320;28;20563;-68
2023/12/05 01:22:45;;;;;;;62.38;56.05;;;10.50;99.90;;;;;;4996843;28;20046;-67
2023/12/05 01:25:11;;;;;;;159.93;64.40;;;10.00;1.00;;;;;;5005940;28;20046;-65
2023/12/05 01:27:36;;;;;;;57.45;50.00;;;10.20;1.00;;;;;;4996616;28;20125;-67
2023/12/05 01:30:04;;;;;;;56.72;50.88;;;10.50;1.00;;;;;;4997733;28;20140;-67
2023/12/05 01:32:29;;;;;;;58.03;51.88;;;10.40;16.90;;;;;;4977262;28;20151;-67
2023/12/05 01:34:56;;;;;;;59.17;51.70;;;10.50;90.60;;;;;;5008223;28;20168;-66
2023/12/05 01:37:22;;;;;;;59.13;52.90;;;10.00;99.90;;;;;;5009995;28;20182;-67
2023/12/05 01:39:48;;;;;;;57.35;51.10;;;10.20;99.90;;;;;;4987961;28;20515;-67
2023/12/05 01:42:13;;;;;;;63.15;56.38;;;10.30;99.90;;;;;;4989548;28;20041;-67
2023/12/05 01:44:39;;;;;;;62.53;56.03;;;10.60;99.90;;;;;;4988776;28;20097;-67
2023/12/05 01:47:05;;;;;;;62.83;56.30;;;10.10;1.00;;;;;;4991514;28;20586;-67
2023/12/05 01:49:33;;;;;;;63.78;57.75;;;10.40;1.00;;;;;;4998697;28;20047;-67
2023/12/05 01:52:00;;;;;;;60.03;53.97;;;10.30;1.00;;;;;;4988587;28;20524;-68
2023/12/05 01:54:29;;;;;;;63.47;57.03;;;10.60;39.40;;;;;;4988730;28;20046;-67
2023/12/05 01:56:55;;;;;;;62.55;56.00;;;11.40;99.90;;;;;;4987245;28;20507;-68
2023/12/05 01:59:22;;;;;;;57.35;51.35;;;10.60;99.90;;;;;;4988757;28;20670;-67
2023/12/05 02:01:52;;;;;;;58.90;53.13;;;10.00;99.90;;;;;;4988614;28;20193;-67
2023/12/05 02:04:19;;;;;;;61.72;55.53;;;10.60;99.90;;;;;;5001448;28;20042;-68
2023/12/05 02:06:47;;;;;;;61.30;55.08;;;10.10;1.00;;;;;;5000760;28;20050;-69
2023/12/05 02:09:16;;;;;;;65.07;58.55;;;10.30;1.00;;;;;;4987816;28;20042;-69
2023/12/05 02:11:42;;;;;;;60.97;54.08;;;10.30;1.00;;;;;;4988080;28;20048;-67
2023/12/05 02:14:09;;;;;;;59.92;53.60;;;10.40;1.00;;;;;;4988108;28;20081;-69
2023/12/05 02:16:44;;;;;;;57.78;50.95;;;10.00;31.10;;;;;;4985327;28;20060;-69
2023/12/05 02:19:44;;;;;;;61.75;55.25;;;10.60;50.30;;;;;;4988944;28;20481;-69
2023/12/05 02:22:42;;;;;;;61.15;54.25;;;10.60;99.90;;;;;;4987582;28;20530;-70
2023/12/05 02:25:27;;;;;;;61.28;54.22;;;9.90;99.90;;;;;;4973189;28;20042;-70
2023/12/05 02:27:53;;;;;;;60.75;52.45;;;10.00;99.90;;;;;;4981252;28;20082;-68
2023/12/05 02:30:19;;;;;;;64.88;57.90;;;10.50;99.90;;;;;;4986741;28;20049;-70
2023/12/05 02:32:44;;;;;;;63.88;56.13;;;10.50;99.90;;;;;;4991063;28;20045;-69
2023/12/05 02:35:13;;;;;;;64.07;57.28;;;10.40;99.90;;;;;;5020974;28;20070;-70
2023/12/05 02:38:09;;;;;;;70.53;63.40;;;10.40;1.00;;;;;;4994204;28;20042;-69
2023/12/05 02:41:12;;;;;;;62.85;55.47;;;10.50;1.00;;;;;;4987757;28;20053;-69
2023/12/05 02:43:46;;;;;;;61.08;53.72;;;10.40;1.00;;;;;;4987300;28;20042;-70
2023/12/05 02:46:14;;;;;;;63.58;52.75;;;10.10;14.70;;;;;;4987289;28;20050;-69
2023/12/05 02:48:40;;;;;;;61.90;55.05;;;9.80;67.00;;;;;;5001996;28;20045;-68
2023/12/05 02:51:06;;;;;;;61.78;55.10;;;9.80;99.90;;;;;;4994490;28;20053;-68
2023/12/05 02:53:31;;;;;;;65.15;58.17;;;10.40;99.90;;;;;;4986207;28;20412;-69
2023/12/05 02:55:57;;;;;;;62.67;55.80;;;10.10;99.90;;;;;;4987805;28;20045;-69
2023/12/05 02:58:22;;;;;;;60.72;54.15;;;9.90;99.90;;;;;;4986817;28;20086;-69
2023/12/05 03:00:48;;;;;;;67.60;57.22;;;10.30;99.90;;;;;;4986896;28;20062;-69
2023/12/05 03:03:13;;;;;;;62.55;53.15;;;9.80;99.90;;;;;;4987595;28;20061;-69
2023/12/05 03:05:39;;;;;;;60.50;53.45;;;10.40;99.90;;;;;;4996960;28;20128;-69
2023/12/05 03:08:05;;;;;;;65.45;55.72;;;9.80;99.90;;;;;;4991069;28;20038;-69
2023/12/05 03:10:31;;;;;;;66.40;54.80;;;10.50;1.00;;;;;;4986794;28;20046;-69
2023/12/05 03:12:56;;;;;;;63.83;55.65;;;10.50;1.00;;;;;;4987018;28;20501;-67
2023/12/05 03:15:22;;;;;;;64.47;54.28;;;9.90;1.00;;;;;;4987399;28;20046;-67
2023/12/05 03:17:47;;;;;;;62.13;55.35;;;10.40;1.00;;;;;;4984527;28;20050;-67
2023/12/05 03:20:14;;;;;;;65.18;58.28;;;10.40;1.00;;;;;;4995736;28;20081;-68
2023/12/05 03:22:40;;;;;;;58.78;52.50;;;10.30;1.00;;;;;;4991007;28;20038;-68
2023/12/05 03:25:06;;;;;;;71.10;63.67;;;9.70;1.00;;;;;;4987197;28;20484;-67
2023/12/05 03:27:32;;;;;;;68.70;60.85;;;10.30;1.00;;;;;;4986421;28;20048;-68
2023/12/05 03:29:57;;;;;;;66.40;59.25;;;10.30;1.00;;;;;;4986835;28;20121;-68
2023/12/05 03:32:23;;;;;;;66.45;59.40;;;10.10;1.00;;;;;;4987146;28;20041;-68
2023/12/05 03:34:48;;;;;;;63.15;53.47;;;9.80;54.20;;;;;;4994774;28;20602;-68
2023/12/05 03:37:14;;;;;;;66.03;58.95;;;10.30;88.50;;;;;;4999006;28;20480;-68
2023/12/05 03:39:39;;;;;;;66.18;59.22;;;10.50;94.80;;;;;;4987049;28;20042;-68
2023/12/05 03:42:05;;;;;;;63.65;56.10;;;9.80;96.90;;;;;;4986288;28;20401;-67
2023/12/05 03:44:30;;;;;;;70.55;62.75;;;10.40;60.10;;;;;;4987091;28;20046;-68
2023/12/05 03:46:56;;;;;;;64.68;57.58;;;9.90;99.90;;;;;;4986218;28;20463;-67
2023/12/05 03:49:22;;;;;;;65.60;58.45;;;9.90;99.90;;;;;;4994670;28;20416;-67
2023/12/05 03:51:47;;;;;;;64.53;56.65;;;9.80;99.90;;;;;;5006377;28;20041;-67
2023/12/05 03:54:13;;;;;;;60.85;54.22;;;9.90;99.90;;;;;;4986757;28;20034;-67
2023/12/05 03:56:38;;;;;;;66.50;57.10;;;10.20;99.90;;;;;;4987779;28;20952;-67
2023/12/05 03:59:04;;;;;;;64.70;57.60;;;10.20;99.90;;;;;;4990438;28;20353;-66
2023/12/05 04:01:29;;;;;;;66.88;58.15;;;9.80;99.90;;;;;;4990355;28;20420;-68
2023/12/05 04:03:55;;;;;;;64.28;55.30;;;10.50;99.90;;;;;;5003261;28;20046;-67
2023/12/05 04:06:24;;;;;;;64.43;57.53;;;10.40;99.90;;;;;;5005035;28;20509;-68
2023/12/05 04:08:50;;;;;;;62.83;56.17;;;10.00;99.90;;;;;;4990304;28;20045;-68
2023/12/05 04:11:16;;;;;;;62.33;55.42;;;10.20;99.90;;;;;;4988563;28;20112;-68
2023/12/05 04:13:42;;;;;;;69.93;61.58;;;10.40;99.90;;;;;;4990442;28;20038;-67
2023/12/05 04:16:09;;;;;;;71.63;64.03;;;9.80;99.90;;;;;;4990322;28;20070;-67
2023/12/05 04:18:34;;;;;;;67.00;59.88;;;10.10;99.90;;;;;;5000618;28;20123;-67
2023/12/05 04:21:00;;;;;;;69.88;61.67;;;10.00;99.90;;;;;;4990301;28;20038;-67
2023/12/05 04:23:26;;;;;;;67.53;60.17;;;9.90;99.90;;;;;;4990499;28;20461;-69
2023/12/05 04:25:51;;;;;;;70.93;63.22;;;9.80;99.90;;;;;;4989809;28;20046;-69
2023/12/05 04:28:17;;;;;;;64.60;56.53;;;9.90;99.90;;;;;;4989794;28;20514;-70
2023/12/05 04:30:43;;;;;;;71.57;63.60;;;10.10;1.00;;;;;;4990104;28;20630;-68
2023/12/05 04:33:08;;;;;;;72.00;64.22;;;10.30;1.00;;;;;;4990464;28;20049;-69
2023/12/05 04:35:35;;;;;;;73.90;65.88;;;10.30;1.00;;;;;;4996514;28;20045;-69
2023/12/05 04:38:01;;;;;;;72.00;64.28;;;9.80;1.00;;;;;;4995795;28;20050;-69
2023/12/05 04:40:26;;;;;;;66.57;59.30;;;10.30;1.00;;;;;;4989879;28;20053;-69
2023/12/05 04:42:52;;;;;;;78.07;70.30;;;10.50;1.00;;;;;;4989950;28;20404;-69
2023/12/05 04:45:18;;;;;;;129.23;72.05;;;9.90;1.00;;;;;;4989228;28;20182;-67
2023/12/05 04:47:45;;;;;;;77.82;69.57;;;10.00;1.00;;;;;;4990068;28;20046;-67
2023/12/05 04:50:10;;;;;;;66.13;58.10;;;10.40;1.00;;;;;;4989610;28;20552;-70
2023/12/05 04:52:36;;;;;;;69.20;61.70;;;10.40;1.00;;;;;;4989469;28;20070;-69
2023/12/05 04:55:02;;;;;;;70.05;62.10;;;9.80;1.00;;;;;;4993853;28;20459;-68
2023/12/05 04:57:27;;;;;;;69.10;61.90;;;9.80;4.60;;;;;;5001937;28;20038;-69
2023/12/05 04:59:53;;;;;;;72.32;64.60;;;10.40;12.00;;;;;;4989783;28;20034;-70
2023/12/05 05:02:18;;;;;;;66.88;59.65;;;10.30;21.60;;;;;;4989232;28;20125;-69
2023/12/05 05:04:44;;;;;;;67.53;60.38;;;10.20;31.10;;;;;;4988373;28;20042;-69
2023/12/05 05:07:10;;;;;;;66.97;59.90;;;10.50;40.60;;;;;;4988810;28;20041;-68
2023/12/05 05:09:39;;;;;;;84.68;76.40;;;10.50;48.80;;;;;;4990221;28;20051;-70
2023/12/05 05:12:08;;;;;;;69.95;62.47;;;10.70;64.80;;;;;;5008387;28;20049;-69
2023/12/05 05:14:34;;;;;;;65.25;55.63;;;10.20;74.30;;;;;;4978743;28;20073;-70
2023/12/05 05:17:00;;;;;;;60.20;53.70;;;9.80;85.20;;;;;;4986373;28;20078;-69
2023/12/05 05:19:25;;;;;;;66.57;57.13;;;10.10;91.40;;;;;;4989491;28;20471;-69
2023/12/05 05:21:51;;;;;;;68.13;58.53;;;10.40;93.00;;;;;;4989470;28;20935;-69
2023/12/05 05:24:16;;;;;;;65.97;58.78;;;9.80;99.70;;;;;;4989554;28;20089;-68
2023/12/05 05:26:42;;;;;;;65.30;57.95;;;9.90;99.90;;;;;;4990833;28;20049;-68
2023/12/05 05:29:07;;;;;;;65.35;55.97;;;9.80;99.90;;;;;;4989074;28;20105;-69
2023/12/05 05:31:33;;;;;;;68.72;58.45;;;9.80;99.90;;;;;;4988995;28;20124;-69
2023/12/05 05:33:58;;;;;;;68.63;58.58;;;9.80;99.90;;;;;;4989747;28;20042;-63
2023/12/05 05:36:24;;;;;;;63.13;56.35;;;10.30;99.90;;;;;;4988700;28;20150;-63
2023/12/05 05:38:49;;;;;;;72.93;59.78;;;10.40;99.90;;;;;;4988818;28;20121;-64
2023/12/05 05:41:15;;;;;;;69.32;59.72;;;10.40;99.90;;;;;;4989196;28;20508;-63
2023/12/05 05:43:41;;;;;;;65.97;56.92;;;9.90;99.90;;;;;;4988913;28;20548;-64
2023/12/05 05:46:06;;;;;;;62.55;55.95;;;10.40;99.90;;;;;;4988725;28;20533;-63
2023/12/05 05:48:32;;;;;;;67.60;58.33;;;10.40;99.90;;;;;;4988432;28;20046;-64
2023/12/05 05:50:57;;;;;;;64.75;57.55;;;11.30;99.90;;;;;;4999931;28;20124;-63
2023/12/05 05:53:23;;;;;;;64.32;57.35;;;10.40;99.90;;;;;;4995373;28;20045;-63
2023/12/05 05:55:49;;;;;;;64.30;57.13;;;10.00;99.90;;;;;;4988594;28;20050;-63
2023/12/05 05:58:14;;;;;;;69.80;60.50;;;9.80;99.90;;;;;;4988382;28;20468;-63
2023/12/05 06:00:40;;;;;;;72.25;61.92;;;9.60;99.90;;;;;;4988275;28;20583;-63
2023/12/05 06:03:05;;;;;;;65.45;58.25;;;10.30;99.90;;;;;;5004087;28;20054;-64
2023/12/05 06:05:31;;;;;;;64.57;55.22;;;9.70;99.90;;;;;;4986476;28;20049;-64
2023/12/05 06:07:56;;;;;;;62.92;52.92;;;9.90;99.90;;;;;;4988019;28;20045;-63
2023/12/05 06:10:22;;;;;;;68.75;57.30;;;10.30;99.90;;;;;;4988100;28;20042;-64
2023/12/05 06:12:48;;;;;;;68.95;59.17;;;10.00;99.90;;;;;;4988517;28;20480;-66
2023/12/05 06:15:13;;;;;;;67.88;60.25;;;9.90;99.90;;;;;;5002854;28;20200;-63
2023/12/05 06:17:39;;;;;;;71.43;55.75;;;9.70;99.90;;;;;;4991820;28;20034;-64
2023/12/05 06:20:06;;;;;;;70.90;56.78;;;9.90;99.90;;;;;;4986080;28;20046;-63
2023/12/05 06:22:31;;;;;;;70.47;55.67;;;10.20;99.90;;;;;;4987764;28;20068;-63
2023/12/05 06:24:57;;;;;;;66.30;58.22;;;9.70;99.90;;;;;;4988126;28;20045;-62
2023/12/05 06:27:23;;;;;;;64.05;56.97;;;10.00;99.90;;;;;;4987211;28;20125;-64
2023/12/05 06:29:48;;;;;;;68.45;58.92;;;10.10;99.90;;;;;;4987780;28;20030;-63
2023/12/05 06:32:14;;;;;;;62.72;53.67;;;10.30;99.90;;;;;;4988162;28;20176;-64
2023/12/05 06:34:39;;;;;;;64.82;57.45;;;10.40;99.90;;;;;;4987909;28;20461;-63
2023/12/05 06:37:05;;;;;;;69.07;58.28;;;10.30;99.90;;;;;;4988156;28;20361;-63
2023/12/05 06:39:30;;;;;;;66.60;59.25;;;9.70;99.90;;;;;;5006053;28;20049;-62
2023/12/05 06:41:56;;;;;;;72.70;63.50;;;10.40;99.90;;;;;;4991801;28;20057;-64
2023/12/05 06:44:21;;;;;;;66.82;57.30;;;10.30;99.90;;;;;;4987229;28;20524;-63
2023/12/05 06:46:47;;;;;;;72.35;61.47;;;9.80;99.90;;;;;;4991289;28;20053;-62
2023/12/05 06:49:12;;;;;;;66.22;58.97;;;10.00;99.90;;;;;;4987312;28;20325;-63
2023/12/05 06:51:40;;;;;;;67.00;57.83;;;10.10;99.90;;;;;;4987262;28;20039;-61
2023/12/05 06:54:05;;;;;;;71.28;61.13;;;9.80;99.90;;;;;;4986847;28;20034;-63
2023/12/05 06:56:31;;;;;;;69.97;62.15;;;10.40;99.90;;;;;;4986819;28;20049;-62
2023/12/05 06:58:58;;;;;;;69.43;60.05;;;10.20;99.90;;;;;;4985487;28;20500;-63
2023/12/05 07:01:23;;;;;;;70.18;56.05;;;9.80;99.90;;;;;;4976685;28;20062;-62
2023/12/05 07:03:49;;;;;;;66.28;57.97;;;10.40;99.90;;;;;;4992555;28;20400;-62
2023/12/05 07:06:15;;;;;;;66.53;57.47;;;10.20;99.90;;;;;;4997800;28;20493;-63
2023/12/05 07:08:41;;;;;;;66.25;57.33;;;9.90;99.90;;;;;;4984805;28;20051;-62
2023/12/05 07:11:07;;;;;;;66.35;52.67;;;9.90;99.90;;;;;;4981051;28;20041;-62
2023/12/05 07:13:32;;;;;;;70.60;60.15;;;9.90;99.90;;;;;;4970749;28;20046;-63
2023/12/05 07:15:58;;;;;;;65.00;57.10;;;10.40;99.90;;;;;;4986232;28;20051;-65
2023/12/05 07:18:24;;;;;;;61.72;55.03;;;10.50;99.90;;;;;;4995499;28;20044;-64
2023/12/05 07:20:49;;;;;;;64.90;57.95;;;10.10;99.90;;;;;;4983740;28;20177;-62
2023/12/05 07:23:15;;;;;;;70.60;59.45;;;9.80;99.90;;;;;;4983420;28;20531;-63
2023/12/05 07:25:40;;;;;;;70.40;62.92;;;9.80;99.90;;;;;;4983374;28;20035;-63
2023/12/05 07:28:06;;;;;;;71.13;63.30;;;10.50;99.90;;;;;;4982377;28;20044;-65
2023/12/05 07:30:32;;;;;;;70.70;59.92;;;10.50;99.90;;;;;;4982843;28;20057;-63
2023/12/05 07:32:57;;;;;;;72.80;61.22;;;10.20;99.90;;;;;;4985594;28;20057;-65
2023/12/05 07:35:23;;;;;;;69.57;62.03;;;9.90;99.90;;;;;;4982645;28;20050;-63
2023/12/05 07:37:49;;;;;;;66.93;56.20;;;9.90;99.90;;;;;;4983659;28;20421;-63
2023/12/05 07:40:15;;;;;;;66.90;59.03;;;10.10;99.90;;;;;;4985553;28;20046;-63
2023/12/05 07:42:41;;;;;;;67.35;60.00;;;9.90;99.90;;;;;;4982238;28;20038;-61
2023/12/05 07:45:07;;;;;;;63.85;54.38;;;10.10;99.90;;;;;;4982598;28;20645;-61
2023/12/05 07:47:33;;;;;;;66.25;54.65;;;9.80;99.90;;;;;;4980788;28;20432;-63
2023/12/05 07:49:59;;;;;;;68.97;60.22;;;10.20;99.90;;;;;;4985110;28;20039;-63
2023/12/05 07:52:25;;;;;;;66.88;59.47;;;9.80;99.90;;;;;;4983624;28;20049;-62
2023/12/05 07:54:50;;;;;;;67.97;55.78;;;10.40;99.90;;;;;;4986073;28;20050;-62
2023/12/05 07:57:22;;;;;;;67.65;55.05;;;9.90;99.90;;;;;;4977472;28;20150;-63
2023/12/05 07:59:48;;;;;;;63.20;55.58;;;10.10;99.90;;;;;;4982061;28;20046;-64
2023/12/05 08:02:13;;;;;;;62.72;55.47;;;10.40;99.90;;;;;;4978872;28;20058;-65
2023/12/05 08:04:39;;;;;;;61.88;54.35;;;10.50;99.90;;;;;;4979697;28;20554;-63
2023/12/05 08:07:05;;;;;;;61.00;54.28;;;10.50;99.90;;;;;;4981988;28;20078;-64
2023/12/05 08:09:30;;;;;;;62.80;56.00;;;9.90;99.90;;;;;;4984433;28;20035;-62
2023/12/05 08:11:56;;;;;;;67.43;56.30;;;9.90;99.90;;;;;;4982375;28;20038;-63
2023/12/05 08:14:22;;;;;;;65.38;56.28;;;10.60;99.90;;;;;;4982109;28;20058;-64
2023/12/05 08:16:47;;;;;;;57.60;50.28;;;9.90;99.90;;;;;;4981746;28;20412;-64
2023/12/05 08:19:13;;;;;;;61.08;52.63;;;10.60;99.90;;;;;;4981890;28;20499;-63
2023/12/05 08:21:38;;;;;;;60.40;53.47;;;9.90;99.90;;;;;;4983552;28;20617;-65
2023/12/05 08:24:04;;;;;;;65.45;57.60;;;10.60;99.90;;;;;;4981681;28;20069;-63
2023/12/05 08:26:31;;;;;;;65.57;54.92;;;9.90;99.90;;;;;;4998536;28;20054;-64
2023/12/05 08:28:58;;;;;;;61.10;54.63;;;10.60;99.90;;;;;;4982159;28;20034;-63
2023/12/05 08:31:24;;;;;;;60.20;53.70;;;10.20;99.90;;;;;;4982484;28;20173;-63
2023/12/05 08:33:49;;;;;;;64.65;57.75;;;10.00;99.90;;;;;;4982757;28;20042;-62
2023/12/05 08:36:15;;;;;;;59.40;53.10;;;10.50;99.90;;;;;;4983836;28;20057;-64
2023/12/05 08:38:40;;;;;;;61.20;54.50;;;10.60;99.90;;;;;;4983275;28;20583;-64
2023/12/05 08:41:06;;;;;;;59.55;53.35;;;10.60;99.90;;;;;;4982596;28;20850;-64
2023/12/05 08:43:32;;;;;;;61.83;54.97;;;10.60;99.90;;;;;;4985467;28;20054;-64
2023/12/05 08:45:58;;;;;;;64.30;54.13;;;10.00;99.90;;;;;;4987666;28;20034;-63
2023/12/05 08:48:24;;;;;;;60.83;50.83;;;10.20;99.90;;;;;;4985436;28;20112;-65
2023/12/05 08:50:49;;;;;;;63.15;56.25;;;10.10;99.90;;;;;;4984144;28;20050;-63
2023/12/05 08:53:15;;;;;;;60.80;54.28;;;10.60;99.90;;;;;;4987658;28;20041;-63
2023/12/05 08:55:42;;;;;;;61.05;52.90;;;10.70;99.90;;;;;;4987663;28;20049;-63
2023/12/05 08:58:07;;;;;;;60.58;52.80;;;10.50;99.90;;;;;;4984194;28;20046;-63
2023/12/05 09:00:34;;;;;;;65.15;55.45;;;10.70;99.10;;;;;;4986141;28;20049;-63
2023/12/05 09:03:00;;;;;;;59.30;52.22;;;10.10;81.50;;;;;;4983092;28;20046;-62
2023/12/05 09:05:26;;;;;;;58.70;52.45;;;10.70;46.00;;;;;;4983879;28;20042;-63
2023/12/05 09:07:51;;;;;;;59.05;52.55;;;10.60;16.50;;;;;;4983900;28;20034;-63
2023/12/05 09:10:17;;;;;;;61.53;53.63;;;10.20;1.00;;;;;;4986456;28;20101;-62
2023/12/05 09:12:43;;;;;;;62.13;54.95;;;10.60;1.00;;;;;;4984147;28;20046;-62
2023/12/05 09:15:08;;;;;;;57.92;51.83;;;10.00;1.00;;;;;;4983914;28;20042;-64
2023/12/05 09:17:34;;;;;;;61.47;54.80;;;10.50;1.00;;;;;;4984535;28;20030;-62
2023/12/05 09:20:00;;;;;;;60.80;54.28;;;10.60;1.00;;;;;;4987808;28;20050;-62
2023/12/05 09:22:26;;;;;;;58.50;52.15;;;10.60;99.90;;;;;;4986835;28;20124;-62
2023/12/05 09:24:51;;;;;;;59.42;50.72;;;10.40;99.90;;;;;;4985516;28;20050;-62
2023/12/05 09:27:17;;;;;;;62.45;55.28;;;10.70;99.90;;;;;;4978647;28;20038;-62
2023/12/05 09:29:42;;;;;;;65.13;57.75;;;10.00;99.90;;;;;;4985324;28;20112;-62
2023/12/05 09:32:08;;;;;;;64.72;57.75;;;10.20;99.90;;;;;;4985023;28;20046;-62
2023/12/05 09:34:33;;;;;;;66.97;59.85;;;10.60;99.90;;;;;;4985807;28;20129;-61
2023/12/05 09:36:59;;;;;;;64.90;54.42;;;10.60;99.90;;;;;;4985238;28;20872;-62
2023/12/05 09:39:24;;;;;;;57.35;51.15;;;10.20;56.00;;;;;;4986887;28;20061;-63
2023/12/05 09:41:52;;;;;;;56.75;50.20;;;10.10;1.00;;;;;;4998204;28;20042;-63
2023/12/05 09:44:23;;;;;;;61.08;54.78;;;10.50;1.00;;;;;;4984586;28;20076;-62
2023/12/05 09:46:56;;;;;;;63.70;55.40;;;10.70;1.00;;;;;;4985991;28;20049;-64
2023/12/05 09:49:26;;;;;;;62.17;54.90;;;10.70;1.00;;;;;;4984167;28;20123;-63
2023/12/05 09:51:52;;;;;;;64.93;55.50;;;10.10;99.90;;;;;;4984250;28;20046;-62
2023/12/05 09:54:18;;;;;;;58.83;52.45;;;10.60;99.90;;;;;;4986410;28;20042;-64
2023/12/05 09:56:45;;;;;;;63.30;56.58;;;10.70;99.90;;;;;;5000650;28;20484;-65
2023/12/05 09:59:10;;;;;;;65.53;58.60;;;10.10;99.90;;;;;;4982582;28;20575;-63
2023/12/05 10:01:37;;;;;;;62.65;55.78;;;10.10;99.90;;;;;;4985978;28;20058;-62
2023/12/05 10:04:08;;;;;;;61.33;54.75;;;10.10;99.90;;;;;;4982463;28;20038;-63
2023/12/05 10:06:37;;;;;;;60.63;53.42;;;10.50;99.90;;;;;;4985885;28;20141;-63
2023/12/05 10:09:06;;;;;;;68.05;59.53;;;10.20;96.00;;;;;;4985798;28;20041;-62
2023/12/05 10:11:33;;;;;;;62.72;56.22;;;10.80;51.70;;;;;;4982660;28;20050;-62
2023/12/05 10:13:58;;;;;;;59.95;53.53;;;10.20;46.80;;;;;;4984992;28;20097;-62
2023/12/05 10:16:26;;;;;;;65.57;58.67;;;10.20;8.40;;;;;;4986341;28;20888;-65
2023/12/05 10:18:52;;;;;;;67.57;58.25;;;10.30;1.00;;;;;;4981605;28;20362;-62
2023/12/05 10:21:17;;;;;;;64.30;55.13;;;10.20;1.00;;;;;;4985091;28;20050;-63
2023/12/05 10:23:43;;;;;;;58.80;52.40;;;10.80;1.00;;;;;;4983676;28;20473;-64
2023/12/05 10:26:09;;;;;;;66.85;54.67;;;11.40;1.00;;;;;;4984759;28;20034;-63
2023/12/05 10:28:51;;;;;;;64.38;53.38;;;10.90;1.00;;;;;;4985738;28;20081;-64
2023/12/05 10:31:18;;;;;;;59.60;53.08;;;10.70;1.00;;;;;;4983229;28;20406;-63
2023/12/05 10:33:44;;;;;;;62.50;55.75;;;10.70;1.00;;;;;;4984765;28;20552;-65
2023/12/05 10:36:13;;;;;;;58.88;52.42;;;10.30;1.00;;;;;;4984054;28;20048;-64
2023/12/05 10:38:45;;;;;;;59.97;53.47;;;10.70;1.00;;;;;;4981216;28;20126;-63
2023/12/05 10:41:11;;;;;;;63.80;54.53;;;10.30;1.00;;;;;;4982011;28;20845;-63
2023/12/05 10:43:37;;;;;;;60.22;51.65;;;10.60;1.00;;;;;;4984934;28;20149;-62
2023/12/05 10:46:05;;;;;;;62.47;53.22;;;10.90;1.00;;;;;;4983821;28;20053;-64
2023/12/05 10:48:31;;;;;;;61.90;55.15;;;10.70;1.00;;;;;;4996340;28;20057;-65
2023/12/05 10:50:57;;;;;;;59.92;52.90;;;10.70;1.00;;;;;;4984745;28;20742;-64
2023/12/05 10:53:22;;;;;;;60.65;53.08;;;10.80;1.00;;;;;;4983057;28;20410;-64
2023/12/05 10:55:48;;;;;;;61.20;54.53;;;10.80;1.00;;;;;;4984737;28;20046;-64
2023/12/05 10:58:14;;;;;;;70.03;57.85;;;10.20;1.00;;;;;;4981154;28;20133;-63
2023/12/05 11:00:40;;;;;;;61.95;55.20;;;10.60;1.00;;;;;;4977755;28;20648;-64
2023/12/05 11:03:07;;;;;;;60.38;52.72;;;10.30;1.00;;;;;;4983301;28;20500;-63
2023/12/05 11:05:35;;;;;;;66.22;55.65;;;10.20;1.00;;;;;;4982359;28;20046;-65
2023/12/05 11:08:02;;;;;;;70.28;57.47;;;10.30;1.00;;;;;;4982375;28;20081;-66
2023/12/05 11:10:28;;;;;;;64.90;56.00;;;10.90;99.90;;;;;;4981716;28;20042;-63
2023/12/05 11:12:55;;;;;;;62.42;55.78;;;11.00;99.90;;;;;;4978997;28;20038;-64
2023/12/05 11:15:39;;;;;;;64.25;57.05;;;10.30;99.90;;;;;;4987119;28;20042;-65
2023/12/05 11:18:16;;;;;;;65.35;56.10;;;10.40;99.90;;;;;;4983483;28;20049;-66
2023/12/05 11:21:03;;;;;;;65.20;56.72;;;10.50;99.90;;;;;;4986725;28;20089;-64
2023/12/05 11:23:59;;;;;;;61.97;55.22;;;10.60;99.90;;;;;;4983409;28;20124;-68
2023/12/05 11:26:55;;;;;;;60.92;54.13;;;10.50;99.90;;;;;;4982190;28;20148;-66
2023/12/05 11:29:33;;;;;;;63.85;55.90;;;10.70;99.90;;;;;;4982398;28;20841;-68
2023/12/05 11:32:12;;;;;;;63.85;56.97;;;11.00;99.90;;;;;;4984637;28;20073;-68
2023/12/05 11:35:20;;;;;;;65.28;56.28;;;11.10;99.90;;;;;;4984133;28;20062;-68
2023/12/05 11:38:02;;;;;;;59.55;52.88;;;10.70;99.90;;;;;;4982520;28;20536;-68
2023/12/05 11:40:27;;;;;;;67.03;55.85;;;10.50;99.90;;;;;;4984427;28;20057;-66
2023/12/05 11:43:11;;;;;;;66.53;56.78;;;11.10;99.90;;;;;;4982474;28;20037;-67
2023/12/05 11:45:42;;;;;;;64.00;53.40;;;10.70;99.90;;;;;;4981562;28;20039;-67
2023/12/05 11:48:13;;;;;;;63.05;56.22;;;10.50;99.90;;;;;;4982820;28;20042;-68
2023/12/05 11:50:47;;;;;;;62.53;55.30;;;11.10;37.60;;;;;;4984400;28;20097;-67
2023/12/05 11:53:14;;;;;;;61.03;53.15;;;10.60;1.00;;;;;;4982725;28;20570;-66
2023/12/05 11:55:42;;;;;;;65.20;58.13;;;10.50;1.00;;;;;;4979976;28;20082;-68
2023/12/05 11:58:27;;;;;;;61.60;54.80;;;11.00;1.00;;;;;;4982170;28;20042;-67
2023/12/05 12:01:06;;;;;;;62.90;56.15;;;11.20;99.90;;;;;;4982165;28;20097;-66
2023/12/05 12:03:47;;;;;;;63.30;55.92;;;10.80;99.90;;;;;;4982674;28;20046;-68
2023/12/05 12:06:16;;;;;;;61.17;54.42;;;10.80;99.90;;;;;;4981433;28;20046;-67
2023/12/05 12:08:44;;;;;;;55.75;49.58;;;10.70;99.90;;;;;;4982979;28;20046;-67
2023/12/05 12:11:10;;;;;;;63.85;56.88;;;11.20;99.90;;;;;;4985152;28;20044;-66
2023/12/05 12:13:36;;;;;;;65.57;58.45;;;11.10;36.80;;;;;;4984071;28;20046;-67
2023/12/05 12:16:02;;;;;;;60.35;53.78;;;10.60;9.10;;;;;;4980093;28;20069;-65
2023/12/05 12:18:28;;;;;;;63.47;56.63;;;10.60;1.00;;;;;;4984016;28;20042;-67
2023/12/05 12:20:54;;;;;;;59.55;53.30;;;10.80;1.00;;;;;;4987316;28;20449;-68
2023/12/05 12:23:20;;;;;;;61.05;53.72;;;11.20;99.90;;;;;;4982314;28;20528;-65
2023/12/05 12:25:53;;;;;;;59.42;52.85;;;11.10;99.90;;;;;;4983679;28;20120;-68
2023/12/05 12:28:33;;;;;;;58.53;50.55;;;10.90;99.90;;;;;;4984443;28;20074;-68
2023/12/05 12:30:59;;;;;;;66.40;57.47;;;10.90;99.90;;;;;;4985768;28;20096;-69